Details From YBBN - Brisbane Intl
To YBUD - Bundaberg
Flight Number -
Tags decoded
Created
Modified
Stats Distance 158 nm / 292 km
Max Altitude 0 ft / 0 m
Waypoints 5
Social Downloads 87
Likes 0
Share VATSIM

Download

Looking for another format? Having issues loading an existing format? Contact us
Advertisement - Login to hide

Notes

Requested: YBBN BN V134 SU W374 SOSTU YBUD

Route

YBBN BN V134 SU W374 SOSTU YBUD

ID Type Via Altitude (ft/m) Position (lat/lon) Dist (leg/tot) Name
O YBBN APT - 0 / 0 -27.37580 / 153.12800 - / 0 nm Brisbane Intl
BN VOR - 0 / 0 -27.36610 / 153.13900 0 / 0 nm BRISBANE
SU VOR V134 (AWY-LO) 0 / 0 -26.59770 / 153.09000 46 / 47 nm SUNSHINE COAST
SOSTU FIX W374 (AWY-LO) 0 / 0 -25.51970 / 152.71000 67 / 114 nm
O YBUD APT - 0 / 0 -24.90340 / 152.32000 42 / 157 nm Bundaberg

Altitude Profile

Advertisement - Login to hide

YBBN

Details ICAO YBBN (BNE)
Name Brisbane Intl
Region Australia
Timezone Australia/Brisbane (UTC+10.0)
Stats Elevation 12 ft / 4 m (AMSL)
Location -27.375800° 153.128000°
Runways 2
Magnetic Variation 10.994° E

METAR

YBBN 211300Z 04010KT 9999 FEW030 22/17 Q1019 FM1300 04010KT 9000 FU FEW030

Decode

TAF

TAF YBBN 211052Z 2112/2218 03012KT 8000 FU SCT025 FM220000 03017KT 8000 FU HZ FEW030 FM221400 34010KT 9000 FU HZ SCT025 TEMPO 2202/2210 5000 FU NSC

Decode

Departure Runways

ID Width Length Bearing (true/mag) Surface Threshold Overrun Markings Lighting
01 148 ft / 45 m 11,744 ft / 3,580 m 26.93° / 15.94° ASPHALT 213 ft / 65 m 0 ft / 0 m UK-APP CENTERLINE EDGE THRESHOLD CALVERT REIL-OMNI
14 98 ft / 30 m 5,787 ft / 1,764 m 145.66° / 134.67° ASPHALT 197 ft / 60 m 0 ft / 0 m APP EDGE THRESHOLD
19 148 ft / 45 m 11,744 ft / 3,580 m 206.92° / 195.93° ASPHALT 0 ft / 0 m 0 ft / 0 m UK-APP CENTERLINE EDGE THRESHOLD CALVERT TDZ REIL-OMNI
32 98 ft / 30 m 5,787 ft / 1,764 m 325.66° / 314.66° ASPHALT 197 ft / 60 m 0 ft / 0 m APP EDGE THRESHOLD

YBUD

Details ICAO YBUD (BDB)
Name Bundaberg
Region Australia
Timezone Australia/Brisbane (UTC+10.0)
Stats Elevation 106 ft / 32 m (AMSL)
Location -24.903400° 152.320000°
Runways 2
Magnetic Variation 10.076° E

METAR

YBUD 211300Z AUTO 08005KT 9999 // NCD 22/15 Q1018

Decode

TAF

Not found

Destination Runways

ID Width Length Bearing (true/mag) Surface Threshold Overrun Markings Lighting
07 95 ft / 29 m 3,704 ft / 1,129 m 68.50° / 58.43° GRASS 0 ft / 0 m 0 ft / 0 m NONE
14 98 ft / 30 m 5,042 ft / 1,537 m 147.90° / 137.83° ASPHALT 331 ft / 101 m 30 ft / 9 m APP EDGE THRESHOLD
25 95 ft / 29 m 3,704 ft / 1,129 m 248.50° / 238.42° GRASS 0 ft / 0 m 0 ft / 0 m NONE
32 98 ft / 30 m 5,042 ft / 1,537 m 327.90° / 317.82° ASPHALT 0 ft / 0 m 39 ft / 12 m APP EDGE THRESHOLD

Popular Alternatives